createdAt,value
2018-05-13T00:00:46.670Z,99.90
2018-05-13T00:03:15.068Z,99.90
2018-05-13T00:05:43.638Z,99.90
2018-05-13T00:08:12.104Z,99.90
2018-05-13T00:10:40.591Z,99.90
2018-05-13T00:13:08.989Z,99.90
2018-05-13T00:15:37.543Z,99.90
2018-05-13T00:18:06.175Z,99.90
2018-05-13T00:20:34.567Z,99.90
2018-05-13T00:23:02.968Z,99.90
2018-05-13T00:25:31.517Z,99.90
2018-05-13T00:28:00.727Z,99.90
2018-05-13T00:30:29.127Z,99.90
2018-05-13T00:32:57.523Z,99.90
2018-05-13T00:35:25.886Z,99.90
2018-05-13T00:37:54.327Z,99.90
2018-05-13T00:40:23.463Z,99.90
2018-05-13T00:42:52.634Z,99.90
2018-05-13T00:45:21.044Z,99.90
2018-05-13T00:47:49.436Z,99.90
2018-05-13T00:50:19.683Z,99.90
2018-05-13T00:52:48.100Z,99.90
2018-05-13T00:55:16.779Z,99.90
2018-05-13T00:57:45.152Z,99.90
2018-05-13T01:00:14.357Z,99.90
2018-05-13T01:02:42.806Z,99.90
2018-05-13T01:05:11.373Z,99.90
2018-05-13T01:07:39.763Z,99.90
2018-05-13T01:10:08.257Z,99.90
2018-05-13T01:12:38.398Z,99.90
2018-05-13T01:15:06.799Z,99.90
2018-05-13T01:17:35.354Z,99.90
2018-05-13T01:20:03.988Z,99.90
2018-05-13T01:22:33.143Z,99.90
2018-05-13T01:25:01.687Z,99.90
2018-05-13T01:27:30.054Z,99.90
2018-05-13T01:29:59.388Z,99.90
2018-05-13T01:32:27.854Z,99.90
2018-05-13T01:34:58.566Z,99.90
2018-05-13T01:37:27.800Z,99.90
2018-05-13T01:39:56.358Z,99.90
2018-05-13T01:42:27.427Z,99.90
2018-05-13T01:44:56.679Z,99.90
2018-05-13T01:47:25.167Z,99.90
2018-05-13T01:49:53.579Z,99.90
2018-05-13T01:52:22.078Z,99.90
2018-05-13T01:54:50.458Z,99.90
2018-05-13T01:57:18.977Z,99.90
2018-05-13T01:59:48.216Z,99.90
2018-05-13T02:02:16.631Z,99.90
2018-05-13T02:04:45.056Z,99.90
2018-05-13T02:07:14.283Z,99.90
2018-05-13T02:09:42.695Z,99.90
2018-05-13T02:12:11.144Z,99.90
2018-05-13T02:14:39.598Z,99.90
2018-05-13T02:17:08.175Z,99.90
2018-05-13T02:19:38.258Z,99.90
2018-05-13T02:22:07.468Z,99.90
2018-05-13T02:24:36.020Z,99.90
2018-05-13T02:27:04.447Z,99.90
2018-05-13T02:29:32.843Z,99.90
2018-05-13T02:32:01.394Z,99.90
2018-05-13T02:34:29.915Z,99.90
2018-05-13T02:36:58.296Z,99.90
2018-05-13T02:39:26.696Z,99.90
2018-05-13T02:41:56.750Z,99.90
2018-05-13T02:44:25.131Z,99.90
2018-05-13T02:46:53.536Z,99.90
2018-05-13T02:49:21.929Z,99.90
2018-05-13T02:51:51.255Z,99.90
2018-05-13T02:54:19.711Z,99.90
2018-05-13T02:56:48.172Z,99.90
2018-05-13T02:59:16.567Z,99.90
2018-05-13T03:01:44.951Z,99.90
2018-05-13T03:04:13.407Z,99.90
2018-05-13T03:06:41.799Z,99.90
2018-05-13T03:09:10.219Z,99.90
2018-05-13T03:11:39.332Z,99.90
2018-05-13T03:14:08.424Z,99.90
2018-05-13T03:16:36.826Z,99.90
2018-05-13T03:19:05.318Z,99.90
2018-05-13T03:21:34.706Z,99.90
2018-05-13T03:24:04.069Z,99.90
2018-05-13T03:26:32.615Z,99.90
2018-05-13T03:29:01.047Z,99.90
2018-05-13T03:31:30.382Z,99.90
2018-05-13T03:33:59.726Z,99.90
2018-05-13T03:36:28.179Z,99.90
2018-05-13T03:38:57.495Z,99.90
2018-05-13T03:41:25.971Z,99.90
2018-05-13T03:43:54.883Z,99.90
2018-05-13T03:46:24.077Z,99.90
2018-05-13T03:48:52.503Z,99.90
2018-05-13T03:51:21.531Z,99.90
2018-05-13T03:53:50.026Z,99.90
2018-05-13T03:56:18.922Z,99.90
2018-05-13T03:58:47.287Z,99.90
2018-05-13T04:01:15.795Z,99.90
2018-05-13T04:03:44.197Z,99.90
2018-05-13T04:06:12.798Z,99.90
2018-05-13T04:08:53.347Z,99.90
2018-05-13T04:11:33.691Z,99.90
2018-05-13T04:14:14.051Z,99.90
2018-05-13T04:16:42.418Z,99.90
2018-05-13T04:19:11.588Z,99.90
2018-05-13T04:21:39.994Z,99.90
2018-05-13T04:24:08.382Z,99.90
2018-05-13T04:26:36.957Z,99.90
2018-05-13T04:29:05.340Z,99.90
2018-05-13T04:31:33.912Z,99.90
2018-05-13T04:34:02.375Z,99.90
2018-05-13T04:36:30.936Z,99.90
2018-05-13T04:38:59.343Z,99.90
2018-05-13T04:41:27.918Z,99.90
2018-05-13T04:43:56.516Z,99.90
2018-05-13T04:46:25.092Z,99.90
2018-05-13T04:48:53.676Z,99.90
2018-05-13T04:51:22.562Z,99.90
2018-05-13T04:53:51.007Z,99.90
2018-05-13T04:56:20.188Z,99.90
2018-05-13T04:58:49.425Z,99.90
2018-05-13T05:01:18.563Z,99.90
2018-05-13T05:03:47.023Z,99.90
2018-05-13T05:06:15.589Z,99.90
2018-05-13T05:08:44.183Z,99.90
2018-05-13T05:11:12.807Z,99.90
2018-05-13T05:13:41.188Z,99.90
2018-05-13T05:16:09.585Z,99.90
2018-05-13T05:18:38.067Z,99.90
2018-05-13T05:21:06.542Z,99.90
2018-05-13T05:23:34.981Z,99.90
2018-05-13T05:26:03.520Z,99.90
2018-05-13T05:28:32.878Z,99.90
2018-05-13T05:31:01.264Z,99.90
2018-05-13T05:33:30.575Z,99.90
2018-05-13T05:35:58.948Z,99.90
2018-05-13T05:38:27.411Z,99.90
2018-05-13T05:40:55.833Z,99.90
2018-05-13T05:43:24.323Z,99.90
2018-05-13T05:45:52.728Z,99.90
2018-05-13T05:48:21.147Z,99.90
2018-05-13T05:50:50.970Z,99.90
2018-05-13T05:53:19.375Z,99.90
2018-05-13T05:55:48.531Z,99.90
2018-05-13T05:58:16.953Z,99.90
2018-05-13T06:00:45.527Z,99.90
2018-05-13T06:03:13.955Z,99.90
2018-05-13T06:05:42.349Z,99.90
2018-05-13T06:08:10.979Z,99.90
2018-05-13T06:10:40.160Z,99.90
2018-05-13T06:13:08.631Z,99.90
2018-05-13T06:15:37.250Z,99.90
2018-05-13T06:18:05.687Z,99.90
2018-05-13T06:20:34.074Z,99.90
2018-05-13T06:23:03.211Z,99.90
2018-05-13T06:25:32.538Z,99.90
2018-05-13T06:28:01.759Z,99.90
2018-05-13T06:30:30.335Z,99.90
2018-05-13T06:32:58.742Z,99.90
2018-05-13T06:35:28.060Z,99.90
2018-05-13T06:37:57.243Z,99.90
2018-05-13T06:40:25.899Z,99.90
2018-05-13T06:42:54.332Z,99.90
2018-05-13T06:45:22.957Z,99.90
2018-05-13T06:47:51.393Z,99.90
2018-05-13T06:50:20.567Z,99.90
2018-05-13T06:52:48.969Z,99.90
2018-05-13T06:55:17.359Z,99.90
2018-05-13T06:57:46.787Z,99.90
2018-05-13T07:00:15.427Z,99.90
2018-05-13T07:02:43.879Z,99.90
2018-05-13T07:05:12.272Z,99.90
2018-05-13T07:07:40.679Z,99.90
2018-05-13T07:10:09.076Z,99.90
2018-05-13T07:12:37.655Z,99.90
2018-05-13T07:15:06.043Z,99.90
2018-05-13T07:17:35.271Z,99.90
2018-05-13T07:20:03.644Z,99.90
2018-05-13T07:22:32.787Z,99.90
2018-05-13T07:25:01.946Z,99.90
2018-05-13T07:27:30.340Z,99.90
2018-05-13T07:29:58.821Z,99.90
2018-05-13T07:32:27.232Z,99.80
2018-05-13T07:34:56.387Z,95.20
2018-05-13T07:37:24.767Z,95.20
2018-05-13T07:39:53.183Z,93.20
2018-05-13T07:42:22.406Z,99.60
2018-05-13T07:44:51.553Z,94.00
2018-05-13T07:47:19.984Z,93.90
2018-05-13T07:49:48.558Z,96.40
2018-05-13T07:52:17.719Z,94.70
2018-05-13T07:54:46.117Z,94.70
2018-05-13T07:57:14.509Z,94.20
2018-05-13T07:59:42.947Z,89.00
2018-05-13T08:02:11.367Z,89.00
2018-05-13T08:04:40.568Z,90.10
2018-05-13T08:07:09.035Z,90.00
2018-05-13T08:09:37.448Z,73.90
2018-05-13T08:12:06.614Z,76.10
2018-05-13T08:14:35.051Z,76.30
2018-05-13T08:17:03.521Z,80.30
2018-05-13T08:19:31.934Z,77.90
2018-05-13T08:22:00.355Z,88.20
2018-05-13T08:24:28.869Z,90.70
2018-05-13T08:26:57.343Z,90.00
2018-05-13T08:29:25.719Z,82.20
2018-05-13T08:31:54.164Z,87.80
2018-05-13T08:34:22.585Z,64.10
2018-05-13T08:36:51.931Z,82.90
2018-05-13T08:39:20.888Z,82.90
2018-05-13T08:41:49.285Z,72.10
2018-05-13T08:44:17.899Z,70.20
2018-05-13T08:46:47.462Z,72.30
2018-05-13T08:49:15.870Z,72.30
2018-05-13T08:51:44.300Z,82.70
2018-05-13T08:54:13.459Z,66.80
2018-05-13T08:56:41.850Z,66.90
2018-05-13T08:59:10.237Z,72.90
2018-05-13T09:01:38.679Z,86.50
2018-05-13T09:04:07.107Z,71.00
2018-05-13T09:06:35.680Z,80.80
2018-05-13T09:09:04.108Z,84.70
2018-05-13T09:11:32.481Z,75.30
2018-05-13T09:14:01.084Z,73.50
2018-05-13T09:16:29.527Z,83.90
2018-05-13T09:18:58.594Z,74.10
2018-05-13T09:21:28.762Z,85.80
2018-05-13T09:23:57.919Z,84.50
2018-05-13T09:26:26.472Z,84.50
2018-05-13T09:28:54.859Z,93.30
2018-05-13T09:31:23.336Z,89.10
2018-05-13T09:33:52.518Z,76.20
2018-05-13T09:36:21.078Z,76.20
2018-05-13T09:38:49.891Z,85.80
2018-05-13T09:41:18.567Z,90.50
2018-05-13T09:43:46.935Z,88.30
2018-05-13T09:46:15.406Z,90.80
2018-05-13T09:48:45.666Z,94.20
2018-05-13T09:51:14.214Z,92.90
2018-05-13T09:53:43.406Z,87.30
2018-05-13T09:56:11.793Z,87.30
2018-05-13T09:58:41.012Z,91.40
2018-05-13T10:01:09.399Z,91.60
2018-05-13T10:03:38.047Z,92.60
2018-05-13T10:06:06.492Z,79.50
2018-05-13T10:08:35.051Z,87.80
2018-05-13T10:11:04.216Z,90.90
2018-05-13T10:13:32.626Z,91.00
2018-05-13T10:16:01.015Z,93.50
2018-05-13T10:18:29.695Z,81.30
2018-05-13T10:20:59.011Z,76.20
2018-05-13T10:23:28.290Z,80.60
2018-05-13T10:25:57.830Z,82.10
2018-05-13T10:28:26.244Z,67.90
2018-05-13T10:30:54.770Z,81.20
2018-05-13T10:33:23.145Z,79.10
2018-05-13T10:35:51.774Z,88.50
2018-05-13T10:38:20.911Z,74.40
2018-05-13T10:40:49.295Z,77.40
2018-05-13T10:43:17.686Z,72.80
2018-05-13T10:45:46.286Z,90.40
2018-05-13T10:48:14.686Z,77.10
2018-05-13T10:50:43.284Z,85.40
2018-05-13T10:53:11.684Z,83.00
2018-05-13T10:55:40.835Z,79.00
2018-05-13T10:58:09.400Z,79.20
2018-05-13T11:00:37.851Z,85.00
2018-05-13T11:03:07.023Z,84.90
2018-05-13T11:05:36.532Z,74.00
2018-05-13T11:08:05.088Z,76.10
2018-05-13T11:10:33.512Z,87.10
2018-05-13T11:13:01.877Z,83.50
2018-05-13T11:15:31.187Z,86.50
2018-05-13T11:17:59.595Z,71.40
2018-05-13T11:20:28.778Z,70.70
2018-05-13T11:22:57.191Z,70.10
2018-05-13T11:25:25.576Z,80.10
2018-05-13T11:27:54.695Z,68.20
2018-05-13T11:30:23.910Z,78.90
2018-05-13T11:32:52.472Z,79.00
2018-05-13T11:35:20.891Z,78.50
2018-05-13T11:37:49.280Z,70.80
2018-05-13T11:40:18.623Z,91.20
2018-05-13T11:42:47.047Z,91.20
2018-05-13T11:45:15.479Z,63.10
2018-05-13T11:47:44.686Z,64.20
2018-05-13T11:50:13.274Z,65.60
2018-05-13T11:52:41.663Z,63.60
2018-05-13T11:55:10.039Z,59.50
2018-05-13T11:57:38.423Z,72.20
2018-05-13T12:00:06.883Z,60.10
2018-05-13T12:02:36.150Z,64.10
2018-05-13T12:05:04.533Z,63.80
2018-05-13T12:07:33.626Z,66.10
2018-05-13T12:10:02.179Z,57.80
2018-05-13T12:12:30.602Z,56.90
2018-05-13T12:14:59.056Z,60.40
2018-05-13T12:17:28.627Z,63.80
2018-05-13T12:20:00.067Z,66.10
2018-05-13T12:22:28.565Z,66.70
2018-05-13T12:24:57.731Z,64.00
2018-05-13T12:27:26.119Z,65.40
2018-05-13T12:29:54.537Z,69.00
2018-05-13T12:32:22.944Z,66.40
2018-05-13T12:34:51.329Z,74.90
2018-05-13T12:37:19.725Z,65.60
2018-05-13T12:39:48.128Z,63.00
2018-05-13T12:42:16.554Z,62.20
2018-05-13T12:44:44.967Z,81.90
2018-05-13T12:47:13.401Z,70.20
2018-05-13T12:49:41.807Z,64.40
2018-05-13T12:52:11.744Z,66.00
2018-05-13T12:54:40.143Z,59.70
2018-05-13T12:57:08.515Z,57.90
2018-05-13T12:59:36.919Z,53.50
2018-05-13T13:02:05.319Z,68.60
2018-05-13T13:04:33.739Z,65.00
2018-05-13T13:07:02.203Z,64.20
2018-05-13T13:09:30.608Z,57.90
2018-05-13T13:11:59.071Z,57.10
2018-05-13T13:14:28.567Z,57.80
2018-05-13T13:16:57.805Z,61.20
2018-05-13T13:19:26.382Z,60.80
2018-05-13T13:21:54.867Z,64.90
2018-05-13T13:24:23.484Z,60.60
2018-05-13T13:29:27.359Z,67.50
2018-05-13T13:31:55.810Z,66.60
2018-05-13T13:34:24.300Z,65.80
2018-05-13T13:36:53.549Z,61.30
2018-05-13T13:39:22.119Z,53.40
2018-05-13T13:41:50.527Z,58.10
2018-05-13T13:44:18.908Z,51.10
2018-05-13T13:46:47.463Z,55.50
2018-05-13T13:49:15.883Z,54.60
2018-05-13T13:51:45.070Z,67.80
2018-05-13T13:54:13.627Z,67.70
2018-05-13T13:56:42.092Z,61.20
2018-05-13T13:59:11.447Z,54.10
2018-05-13T14:01:40.062Z,53.90
2018-05-13T14:04:08.438Z,51.20
2018-05-13T14:06:36.823Z,51.50
2018-05-13T14:09:05.203Z,54.30
2018-05-13T14:11:34.692Z,51.20
2018-05-13T14:14:03.906Z,60.80
2018-05-13T14:16:34.303Z,57.50
2018-05-13T14:19:02.903Z,55.90
2018-05-13T14:21:31.337Z,60.40
2018-05-13T14:24:00.492Z,53.00
2018-05-13T14:26:28.939Z,52.90
2018-05-13T14:28:57.375Z,66.00
2018-05-13T14:31:25.883Z,57.90
2018-05-13T14:33:54.340Z,49.10
2018-05-13T14:36:22.768Z,50.50
2018-05-13T14:38:53.354Z,57.20
2018-05-13T14:41:22.963Z,58.10
2018-05-13T14:43:51.352Z,50.50
2018-05-13T14:46:19.730Z,54.60
2018-05-13T14:48:48.125Z,48.30
2018-05-13T14:51:16.600Z,50.70
2018-05-13T14:53:44.999Z,58.10
2018-05-13T14:56:14.147Z,58.60
2018-05-13T14:58:42.538Z,58.70
2018-05-13T15:01:12.780Z,51.30
2018-05-13T15:03:41.163Z,51.60
2018-05-13T15:06:09.767Z,52.20
2018-05-13T15:08:38.207Z,50.90
2018-05-13T15:11:06.698Z,64.50
2018-05-13T15:13:35.823Z,52.70
2018-05-13T15:16:05.151Z,49.40
2018-05-13T15:18:33.531Z,49.40
2018-05-13T15:21:02.027Z,51.40
2018-05-13T15:23:30.383Z,48.10
2018-05-13T15:25:59.687Z,47.50
2018-05-13T15:28:28.065Z,47.40
2018-05-13T15:30:56.420Z,47.00
2018-05-13T15:33:25.600Z,49.60
2018-05-13T15:35:54.004Z,49.60
2018-05-13T15:38:22.391Z,57.20
2018-05-13T15:40:51.684Z,52.60
2018-05-13T15:43:20.072Z,57.30
2018-05-13T15:45:49.212Z,49.40
2018-05-13T15:48:17.667Z,49.30
2018-05-13T15:50:46.093Z,50.30
2018-05-13T15:53:14.467Z,51.60
2018-05-13T15:55:42.855Z,49.50
2018-05-13T15:58:11.221Z,48.30
2018-05-13T16:00:39.611Z,50.60
2018-05-13T16:03:09.675Z,49.40
2018-05-13T16:05:38.091Z,50.00
2018-05-13T16:08:07.240Z,55.00
2018-05-13T16:10:36.048Z,55.00
2018-05-13T16:13:04.431Z,50.80
2018-05-13T16:15:32.911Z,57.00
2018-05-13T16:18:01.291Z,50.90
2018-05-13T16:20:29.695Z,54.80
2018-05-13T16:22:58.879Z,61.30
2018-05-13T16:25:27.251Z,61.20
2018-05-13T16:27:55.599Z,55.60
2018-05-13T16:30:24.093Z,56.00
2018-05-13T16:32:53.210Z,58.00
2018-05-13T16:35:21.587Z,58.10
2018-05-13T16:40:16.335Z,53.60
2018-05-13T16:42:45.660Z,55.00
2018-05-13T16:45:14.072Z,63.40
2018-05-13T16:47:42.472Z,54.10
2018-05-13T16:50:10.843Z,56.80
2018-05-13T16:52:40.011Z,56.90
2018-05-13T16:55:08.407Z,57.10
2018-05-13T16:57:36.791Z,58.40
2018-05-13T17:00:05.956Z,61.40
2018-05-13T17:02:34.382Z,61.40
2018-05-13T17:05:02.798Z,65.20
2018-05-13T17:07:31.164Z,63.60
2018-05-13T17:09:59.575Z,62.70
2018-05-13T17:12:27.990Z,68.70
2018-05-13T17:14:56.375Z,59.00
2018-05-13T17:17:24.825Z,64.80
2018-05-13T17:19:53.219Z,61.90
2018-05-13T17:22:21.595Z,66.20
2018-05-13T17:24:50.031Z,63.30
2018-05-13T17:27:18.611Z,57.90
2018-05-13T17:29:46.998Z,59.10
2018-05-13T17:32:16.194Z,62.20
2018-05-13T17:34:45.396Z,61.30
2018-05-13T17:37:13.850Z,61.20
2018-05-13T17:39:42.219Z,57.10
2018-05-13T17:42:10.698Z,59.20
2018-05-13T17:44:39.131Z,60.00
2018-05-13T17:47:07.508Z,65.30
2018-05-13T17:49:35.890Z,70.80
2018-05-13T17:52:04.310Z,71.00
2018-05-13T17:54:32.740Z,71.30
2018-05-13T17:57:01.168Z,63.10
2018-05-13T17:59:29.559Z,66.20
2018-05-13T18:01:57.967Z,65.70
2018-05-13T18:04:27.178Z,64.30
2018-05-13T18:06:55.645Z,64.40
2018-05-13T18:09:24.135Z,63.40
2018-05-13T18:11:52.671Z,71.10
2018-05-13T18:14:21.271Z,75.80
2018-05-13T18:16:49.638Z,75.00
2018-05-13T18:19:18.669Z,76.20
2018-05-13T18:21:47.059Z,73.30
2018-05-13T18:24:16.271Z,77.10
2018-05-13T18:26:45.407Z,83.40
2018-05-13T18:29:13.808Z,83.40
2018-05-13T18:31:42.181Z,83.50
2018-05-13T18:34:11.000Z,87.20
2018-05-13T18:36:39.400Z,82.10
2018-05-13T18:39:08.070Z,79.00
2018-05-13T18:41:36.365Z,81.00
2018-05-13T18:44:05.529Z,88.70
2018-05-13T18:46:33.903Z,88.80
2018-05-13T18:49:02.279Z,87.30
2018-05-13T18:51:30.847Z,80.40
2018-05-13T18:53:59.238Z,84.00
2018-05-13T18:56:27.601Z,90.20
2018-05-13T18:58:56.018Z,91.60
2018-05-13T19:01:24.451Z,95.40
2018-05-13T19:03:52.815Z,95.60
2018-05-13T19:06:21.164Z,96.10
2018-05-13T19:08:49.600Z,96.50
2018-05-13T19:11:17.963Z,99.40
2018-05-13T19:13:46.384Z,99.90
2018-05-13T19:16:14.818Z,99.90
2018-05-13T19:18:45.463Z,99.90
2018-05-13T19:21:15.524Z,99.90
2018-05-13T19:23:43.899Z,99.90
2018-05-13T19:26:12.295Z,99.90
2018-05-13T19:28:41.447Z,99.90
2018-05-13T19:31:09.957Z,99.90
2018-05-13T19:33:38.335Z,99.90
2018-05-13T19:36:07.532Z,99.90
2018-05-13T19:38:35.938Z,99.90
2018-05-13T19:41:04.294Z,99.90
2018-05-13T19:43:33.588Z,99.90
2018-05-13T19:46:02.916Z,99.90
2018-05-13T19:48:31.339Z,99.90
2018-05-13T19:50:59.755Z,99.90
2018-05-13T19:53:28.890Z,99.90
2018-05-13T19:55:57.303Z,99.90
2018-05-13T19:58:25.723Z,99.90
2018-05-13T20:00:54.225Z,99.90
2018-05-13T20:03:23.280Z,99.90
2018-05-13T20:05:51.602Z,99.90
2018-05-13T20:08:20.715Z,99.90
2018-05-13T20:10:50.052Z,99.90
2018-05-13T20:13:18.555Z,99.90
2018-05-13T20:15:46.933Z,99.90
2018-05-13T20:18:15.319Z,99.90
2018-05-13T20:20:43.860Z,99.90
2018-05-13T20:23:25.490Z,99.90
2018-05-13T20:25:54.543Z,99.90
2018-05-13T20:28:22.903Z,99.90
2018-05-13T20:30:51.330Z,99.90
2018-05-13T20:33:20.634Z,99.90
2018-05-13T20:35:49.032Z,99.90
2018-05-13T20:38:17.431Z,99.90
2018-05-13T20:40:45.791Z,99.90
2018-05-13T20:43:14.163Z,99.90
2018-05-13T20:45:42.548Z,99.90
2018-05-13T20:48:10.983Z,99.90
2018-05-13T20:50:39.387Z,99.90
2018-05-13T20:53:07.775Z,99.90
2018-05-13T20:55:36.159Z,99.90
2018-05-13T20:58:05.291Z,99.90
2018-05-13T21:00:33.687Z,99.90
2018-05-13T21:03:02.090Z,99.90
2018-05-13T21:05:30.507Z,99.90
2018-05-13T21:07:58.903Z,99.90
2018-05-13T21:10:28.038Z,99.90
2018-05-13T21:12:56.571Z,99.90
2018-05-13T21:15:25.716Z,99.90
2018-05-13T21:17:54.075Z,99.90
2018-05-13T21:20:22.462Z,99.90
2018-05-13T21:22:50.887Z,99.90
2018-05-13T21:25:19.293Z,99.90
2018-05-13T21:27:47.659Z,99.90
2018-05-13T21:30:16.335Z,99.90
2018-05-13T21:32:45.441Z,99.90
2018-05-13T21:35:13.887Z,99.90
2018-05-13T21:37:42.282Z,99.90
2018-05-13T21:40:11.583Z,99.90
2018-05-13T21:42:39.983Z,99.90
2018-05-13T21:45:08.343Z,99.90
2018-05-13T21:47:36.703Z,99.90
2018-05-13T21:50:05.251Z,99.90
2018-05-13T21:52:34.563Z,99.90
2018-05-13T21:55:02.915Z,99.90
2018-05-13T21:57:31.291Z,99.90
2018-05-13T21:59:59.662Z,99.90
2018-05-13T22:02:28.083Z,99.90
2018-05-13T22:04:59.258Z,99.90
2018-05-13T22:07:27.697Z,99.90
2018-05-13T22:09:56.117Z,99.90
2018-05-13T22:12:24.479Z,99.90
2018-05-13T22:14:53.532Z,99.90
2018-05-13T22:17:21.985Z,99.90
2018-05-13T22:19:50.400Z,99.90
2018-05-13T22:22:18.737Z,99.90
2018-05-13T22:24:47.114Z,99.90
2018-05-13T22:27:15.688Z,99.90
2018-05-13T22:29:44.055Z,99.90
2018-05-13T22:32:12.427Z,99.90
2018-05-13T22:34:40.835Z,99.90
2018-05-13T22:37:09.307Z,99.90
2018-05-13T22:39:38.211Z,99.90
2018-05-13T22:42:06.609Z,99.90
2018-05-13T22:44:34.971Z,99.90
2018-05-13T22:47:03.538Z,99.90
2018-05-13T22:49:32.070Z,99.90
2018-05-13T22:52:00.454Z,99.90
2018-05-13T22:54:29.695Z,99.90
2018-05-13T22:56:58.856Z,99.90
2018-05-13T22:59:27.246Z,99.90
2018-05-13T23:04:29.180Z,99.90
2018-05-13T23:06:57.571Z,99.90
2018-05-13T23:09:26.002Z,99.90
2018-05-13T23:11:54.422Z,99.90
2018-05-13T23:14:23.564Z,99.90
2018-05-13T23:16:55.407Z,99.90
2018-05-13T23:19:23.850Z,99.90
2018-05-13T23:21:53.603Z,99.90
2018-05-13T23:24:21.986Z,99.90
2018-05-13T23:26:51.143Z,99.90
2018-05-13T23:29:19.683Z,99.90
2018-05-13T23:31:48.115Z,99.90
2018-05-13T23:34:16.472Z,99.90
2018-05-13T23:36:44.847Z,99.90
2018-05-13T23:39:14.179Z,99.90
2018-05-13T23:41:44.078Z,99.90
2018-05-13T23:44:13.640Z,99.90
2018-05-13T23:46:42.040Z,99.90
2018-05-13T23:49:10.567Z,99.90
2018-05-13T23:51:38.935Z,99.90
2018-05-13T23:54:07.483Z,99.90
2018-05-13T23:56:35.859Z,99.90
2018-05-13T23:59:04.238Z,99.90
